Terminal Aerodrome Forecast
Issued by NWS Grand Forks, ND

Home | Current Version | Previous Version | Text Only | Print | Product List | Glossary On
Versions: 1 2 3 4 5 6 7 8 9 10 11 12 13 14 15 16 17 18
000
FTUS43 KFGF 282300
TAFGFK
TAF
KGFK 282327Z 2900/2924 36012KT P6SM -RA OVC010
      TEMPO 2900/2902 P6SM NSW OVC025
     FM290200 36010KT P6SM OVC015
     FM291500 05008KT P6SM OVC040=

USA.gov is the U.S. government's official web portal to all federal, state and local government web resources and services.